Aeroporto :
LOGIN :

Iscrizione | Disclaimer

   EN    FR    IT 

 










Sommario :    VFR   VFR Marginale   IFR   IFR Intensivo   IFR Molto Intensivo
Visibilità : 
Base nubi : 
>= 8 km
>= 3000ft
5 / 8 km
1000 / 3000 ft
1500m / 5 km
500 / 1000 ft
800 / 1500m
200 / 500 ft
< 800m
< 200 ft
Simboli :   Temporali  Nebbia  Neve Forte  Precipitazioni Forti  Vento > 20 kt
SIGMETs :   Varie  Temporali  Ghiacco  Turbolenza  Onda orograficha  Ceneri Vulcaniche







- Altitudine del aeroporto : 6 ft
- Codice IATA : PSA


LIRP - Galileo Galilei Pisa

ULTIMO METAR :
  • 181445Z 18004KT 9999 FEW030 FEW035TCU SCT040 14/06 Q1010 NOSIG

METARs OBSOLETI :
  • 181415Z 18005KT 9999 FEW030 SCT040 14/06 Q1010 NOSIG
  • 181345Z 18004KT 9999 FEW030 SCT040 14/05 Q1010 NOSIG
  • 181315Z 19004KT 9999 FEW030 SCT040 14/05 Q1010 NOSIG
  • 181245Z 21005KT 170V250 9999 FEW030 FEW035TCU SCT040 14/06 Q1010 NOSIG
  • 181215Z 22007KT 9999 FEW030 FEW035TCU SCT040 14/06 Q1010 NOSIG

TAF TAF LIRP
Valido dal 18 a 12 ore il 19 a 12 ore UTC


181100Z 1812/1912 24010KT 9999 SCT040
BECMG 1812/1814 08010KT
PROB40
TEMPO 1812/1815 8000 SHRA FEW020CB SCT040
Nessun NOTAM noto per questo aeroporto.



MetMap, La meteo Aeronautica in un colpo d'occhio ! - Copyright ORBIFLY Dicembre 2007 - Disclaimer

ORBIFLY MET'MAP TEAM :

Programmazione e sviluppo : Alexandra Zaïnal
Concezione e sviluppo : Baudouin d'Aumeries
Co-Programmazione e sviluppo : Marc-Olivier Méhu
Supporto tecnico e logistico : Manuel Goepfert
Aiuto per la traduzione : Arnaldo La Scala

Contatto : metmap@orbifly.com




FONTI E CREDITI :

   NOAA